TimeEST,TemperatureF,Dew PointF,Humidity,Sea Level PressureIn,VisibilityMPH,Wind Direction,Wind SpeedMPH,Gust SpeedMPH,PrecipitationIn,Events,Conditions,WindDirDegrees,DateUTC
12:15 AM,19.4,-2.2,39,30.13,10.0,WNW,10.4,-,N/A,,Clear,300,2013-01-23 05:15:00
12:35 AM,19.4,-2.2,39,30.14,10.0,WNW,10.4,-,N/A,,Clear,290,2013-01-23 05:35:00
12:55 AM,17.6,-2.2,42,30.14,10.0,WNW,12.7,16.1,N/A,,Clear,290,2013-01-23 05:55:00
1:15 AM,17.6,-2.2,42,30.14,10.0,WNW,6.9,-,N/A,,Clear,290,2013-01-23 06:15:00
1:35 AM,17.6,-2.2,42,30.14,10.0,WNW,11.5,16.1,N/A,,Clear,290,2013-01-23 06:35:00
2:15 AM,17.6,-0.4,45,30.15,10.0,WNW,9.2,-,N/A,,Clear,290,2013-01-23 07:15:00
2:35 AM,17.6,-0.4,45,30.16,10.0,West,8.1,-,N/A,,Clear,280,2013-01-23 07:35:00
2:55 AM,17.6,-0.4,45,30.16,10.0,WNW,5.8,-,N/A,,Clear,290,2013-01-23 07:55:00
3:15 AM,17.6,-0.4,45,30.16,10.0,West,5.8,-,N/A,,Clear,270,2013-01-23 08:15:00
3:35 AM,17.6,-0.4,45,30.17,10.0,West,4.6,-,N/A,,Clear,270,2013-01-23 08:35:00
3:55 AM,17.6,-0.4,45,30.17,10.0,WNW,5.8,-,N/A,,Clear,290,2013-01-23 08:55:00
4:15 AM,17.6,-0.4,45,30.16,10.0,WNW,8.1,-,N/A,,Clear,290,2013-01-23 09:15:00
4:35 AM,17.6,-0.4,45,30.16,10.0,West,9.2,-,N/A,,Clear,280,2013-01-23 09:35:00
4:55 AM,17.6,-0.4,45,30.16,10.0,WNW,8.1,17.3,N/A,,Clear,290,2013-01-23 09:55:00
5:15 AM,17.6,-0.4,45,30.16,10.0,WNW,11.5,-,N/A,,Clear,290,2013-01-23 10:15:00
5:35 AM,17.6,-2.2,42,30.16,10.0,WNW,9.2,19.6,N/A,,Clear,290,2013-01-23 10:35:00
5:55 AM,17.6,-2.2,42,30.17,10.0,West,9.2,-,N/A,,Clear,270,2013-01-23 10:55:00
6:15 AM,17.6,-2.2,42,30.17,10.0,West,5.8,-,N/A,,Clear,270,2013-01-23 11:15:00
6:35 AM,17.6,-2.2,42,30.17,10.0,Calm,Calm,-,N/A,,Clear,0,2013-01-23 11:35:00
6:55 AM,15.8,-0.4,49,30.18,10.0,SW,3.5,-,N/A,,Clear,230,2013-01-23 11:55:00
7:15 AM,17.6,-2.2,42,30.19,10.0,WSW,5.8,-,N/A,,Clear,250,2013-01-23 12:15:00
7:35 AM,17.6,-2.2,42,30.19,10.0,West,5.8,-,N/A,,Clear,260,2013-01-23 12:35:00
7:55 AM,17.6,-2.2,42,30.19,10.0,West,5.8,-,N/A,,Clear,260,2013-01-23 12:55:00
8:15 AM,17.6,-2.2,42,30.19,10.0,West,4.6,-,N/A,,Clear,270,2013-01-23 13:15:00
8:35 AM,17.6,-2.2,42,30.19,10.0,West,5.8,-,N/A,,Clear,270,2013-01-23 13:35:00
8:55 AM,19.4,-2.2,39,30.20,10.0,West,4.6,-,N/A,,Clear,280,2013-01-23 13:55:00
9:15 AM,19.4,-2.2,39,30.20,10.0,West,8.1,-,N/A,,Clear,270,2013-01-23 14:15:00
9:35 AM,21.2,-2.2,36,30.21,10.0,West,9.2,-,N/A,,Mostly Cloudy,280,2013-01-23 14:35:00
9:55 AM,21.2,-0.4,39,30.21,10.0,West,10.4,-,N/A,,Overcast,270,2013-01-23 14:55:00
10:15 AM,21.2,-0.4,39,30.21,10.0,West,6.9,-,N/A,,Overcast,280,2013-01-23 15:15:00
10:35 AM,23.0,1.4,39,30.21,10.0,West,9.2,-,N/A,,Mostly Cloudy,270,2013-01-23 15:35:00
10:55 AM,24.8,5.0,43,30.21,10.0,West,12.7,18.4,N/A,,Mostly Cloudy,270,2013-01-23 15:55:00
11:15 AM,24.8,6.8,46,30.20,10.0,West,8.1,-,N/A,,Overcast,280,2013-01-23 16:15:00
11:35 AM,24.8,6.8,46,30.19,10.0,West,10.4,17.3,N/A,,Overcast,280,2013-01-23 16:35:00
11:55 AM,26.6,8.6,47,30.18,10.0,WNW,11.5,-,N/A,,Overcast,300,2013-01-23 16:55:00
12:15 PM,26.6,8.6,47,30.17,10.0,West,12.7,19.6,N/A,,Mostly Cloudy,270,2013-01-23 17:15:00
12:35 PM,28.4,10.4,47,30.16,10.0,West,15.0,23.0,N/A,,Mostly Cloudy,280,2013-01-23 17:35:00
12:55 PM,28.4,10.4,47,30.14,10.0,WNW,13.8,24.2,N/A,,Mostly Cloudy,290,2013-01-23 17:55:00
1:15 PM,28.4,12.2,51,30.13,10.0,West,11.5,23.0,N/A,,Mostly Cloudy,270,2013-01-23 18:15:00
1:35 PM,28.4,12.2,51,30.14,10.0,West,16.1,26.5,N/A,,Mostly Cloudy,270,2013-01-23 18:35:00
1:55 PM,28.4,12.2,51,30.12,10.0,West,16.1,21.9,N/A,,Scattered Clouds,260,2013-01-23 18:55:00
2:15 PM,28.4,12.2,51,30.11,10.0,West,12.7,23.0,N/A,,Mostly Cloudy,270,2013-01-23 19:15:00
2:35 PM,28.4,12.2,51,30.11,10.0,WNW,15.0,24.2,N/A,,Overcast,290,2013-01-23 19:35:00
2:55 PM,30.2,14.0,51,30.10,10.0,WNW,10.4,17.3,N/A,,Overcast,290,2013-01-23 19:55:00
3:15 PM,30.2,12.2,47,30.10,10.0,West,9.2,-,N/A,,Overcast,280,2013-01-23 20:15:00
3:35 PM,32.0,14.0,48,30.10,10.0,WNW,11.5,17.3,N/A,,Mostly Cloudy,290,2013-01-23 20:35:00
3:55 PM,32.0,14.0,48,30.10,10.0,WNW,10.4,-,N/A,,Mostly Cloudy,300,2013-01-23 20:55:00
4:15 PM,33.8,15.8,48,30.09,10.0,WNW,9.2,-,N/A,,Overcast,300,2013-01-23 21:15:00
4:35 PM,33.8,15.8,48,30.09,10.0,WNW,4.6,-,N/A,,Overcast,290,2013-01-23 21:35:00
4:55 PM,33.8,15.8,48,30.08,10.0,WSW,5.8,-,N/A,,Scattered Clouds,240,2013-01-23 21:55:00
5:15 PM,33.8,15.8,48,30.08,10.0,WSW,4.6,-,N/A,,Clear,250,2013-01-23 22:15:00
5:35 PM,33.8,19.4,56,30.07,10.0,WSW,11.5,17.3,N/A,,Clear,240,2013-01-23 22:35:00
5:55 PM,33.8,19.4,56,30.07,10.0,WSW,6.9,-,N/A,,Clear,250,2013-01-23 22:55:00
6:15 PM,33.8,19.4,56,30.07,10.0,WSW,6.9,-,N/A,,Clear,250,2013-01-23 23:15:00
6:35 PM,33.8,19.4,56,30.06,10.0,SW,4.6,-,N/A,,Clear,230,2013-01-23 23:35:00
6:55 PM,33.8,21.2,60,30.05,10.0,South,3.5,-,N/A,,Clear,180,2013-01-23 23:55:00
7:15 PM,33.8,19.4,56,30.06,10.0,SSW,6.9,-,N/A,,Clear,210,2013-01-24 00:15:00
7:35 PM,33.8,19.4,56,30.05,10.0,SSW,6.9,-,N/A,,Clear,210,2013-01-24 00:35:00
7:55 PM,33.8,19.4,56,30.04,10.0,SSW,10.4,-,N/A,,Clear,210,2013-01-24 00:55:00
8:15 PM,33.8,21.2,60,30.04,10.0,SW,11.5,18.4,N/A,,Clear,220,2013-01-24 01:15:00
8:35 PM,33.8,21.2,60,30.04,10.0,SW,6.9,16.1,N/A,,Clear,230,2013-01-24 01:35:00
8:55 PM,33.8,21.2,60,30.03,10.0,SW,9.2,-,N/A,,Clear,220,2013-01-24 01:55:00
9:15 PM,33.8,21.2,60,30.02,10.0,SW,10.4,-,N/A,,Clear,220,2013-01-24 02:15:00
9:35 PM,33.8,21.2,60,30.01,10.0,SW,10.4,-,N/A,,Clear,220,2013-01-24 02:35:00
9:55 PM,33.8,21.2,60,30.00,10.0,SSW,12.7,-,N/A,,Scattered Clouds,210,2013-01-24 02:55:00
10:15 PM,33.8,21.2,60,29.99,10.0,SSW,12.7,-,N/A,,Scattered Clouds,210,2013-01-24 03:15:00
10:35 PM,33.8,21.2,60,29.99,10.0,SW,6.9,-,N/A,,Clear,220,2013-01-24 03:35:00
10:55 PM,33.8,21.2,60,29.98,10.0,SW,8.1,-,N/A,,Clear,220,2013-01-24 03:55:00
11:15 PM,33.8,21.2,60,29.97,10.0,SSW,4.6,-,N/A,,Clear,210,2013-01-24 04:15:00
11:35 PM,35.6,21.2,56,29.97,10.0,West,6.9,-,N/A,,Clear,270,2013-01-24 04:35:00
11:55 PM,35.6,23.0,60,29.96,10.0,WNW,6.9,-,N/A,,Clear,300,2013-01-24 04:55:00